sensor_id;sensor_type;location;lat;lon;timestamp;pressure;altitude;pressure_sealevel;temperature;humidity
22649;BME280;11491;41.942;24.220;2023-04-28T00:00:35;89968.38;;;5.48;69.78
22649;BME280;11491;41.942;24.220;2023-04-28T00:03:02;89966.19;;;5.32;70.51
22649;BME280;11491;41.942;24.220;2023-04-28T00:05:28;89959.94;;;5.28;71.08
22649;BME280;11491;41.942;24.220;2023-04-28T00:07:55;89968.84;;;5.32;72.11
22649;BME280;11491;41.942;24.220;2023-04-28T00:10:22;89958.72;;;5.34;72.51
22649;BME280;11491;41.942;24.220;2023-04-28T00:12:48;89962.44;;;5.33;72.10
22649;BME280;11491;41.942;24.220;2023-04-28T00:15:17;89956.50;;;5.36;72.57
22649;BME280;11491;41.942;24.220;2023-04-28T00:17:43;89963.22;;;5.51;70.46
22649;BME280;11491;41.942;24.220;2023-04-28T00:20:10;89959.16;;;5.36;70.67
22649;BME280;11491;41.942;24.220;2023-04-28T00:22:37;89963.41;;;5.37;71.21
22649;BME280;11491;41.942;24.220;2023-04-28T00:25:05;89957.13;;;5.33;70.96
22649;BME280;11491;41.942;24.220;2023-04-28T00:27:32;89969.13;;;5.22;71.48
22649;BME280;11491;41.942;24.220;2023-04-28T00:29:59;89966.16;;;5.15;71.56
22649;BME280;11491;41.942;24.220;2023-04-28T00:32:27;89960.84;;;5.15;71.47
22649;BME280;11491;41.942;24.220;2023-04-28T00:34:56;89959.56;;;5.04;71.47
22649;BME280;11491;41.942;24.220;2023-04-28T00:37:22;89969.50;;;4.89;72.99
22649;BME280;11491;41.942;24.220;2023-04-28T00:39:53;89967.28;;;4.74;72.37
22649;BME280;11491;41.942;24.220;2023-04-28T00:42:20;89971.19;;;4.77;72.35
22649;BME280;11491;41.942;24.220;2023-04-28T00:44:47;89969.53;;;4.27;73.22
22649;BME280;11491;41.942;24.220;2023-04-28T00:47:16;89971.09;;;3.97;74.56
22649;BME280;11491;41.942;24.220;2023-04-28T00:49:45;89970.78;;;3.98;75.35
22649;BME280;11491;41.942;24.220;2023-04-28T00:52:14;89965.63;;;3.93;75.61
22649;BME280;11491;41.942;24.220;2023-04-28T00:54:41;89967.19;;;3.94;75.52
22649;BME280;11491;41.942;24.220;2023-04-28T00:57:09;89970.78;;;3.76;75.09
22649;BME280;11491;41.942;24.220;2023-04-28T00:59:35;89965.50;;;3.76;75.34
22649;BME280;11491;41.942;24.220;2023-04-28T01:02:02;89968.31;;;3.57;76.44
22649;BME280;11491;41.942;24.220;2023-04-28T01:04:29;89975.06;;;3.63;76.85
22649;BME280;11491;41.942;24.220;2023-04-28T01:06:59;89968.25;;;3.71;76.15
22649;BME280;11491;41.942;24.220;2023-04-28T01:09:27;89965.13;;;3.69;75.04
22649;BME280;11491;41.942;24.220;2023-04-28T01:11:53;89962.25;;;3.56;74.98
22649;BME280;11491;41.942;24.220;2023-04-28T01:14:20;89972.28;;;3.32;75.18
22649;BME280;11491;41.942;24.220;2023-04-28T01:16:47;89962.94;;;3.26;75.98
22649;BME280;11491;41.942;24.220;2023-04-28T01:19:17;89964.69;;;3.16;76.94
22649;BME280;11491;41.942;24.220;2023-04-28T01:21:45;89968.22;;;3.12;77.48
22649;BME280;11491;41.942;24.220;2023-04-28T01:24:14;89966.25;;;3.17;76.65
22649;BME280;11491;41.942;24.220;2023-04-28T01:26:40;89961.28;;;3.16;76.90
22649;BME280;11491;41.942;24.220;2023-04-28T01:29:07;89957.47;;;3.08;77.65
22649;BME280;11491;41.942;24.220;2023-04-28T01:31:34;89958.25;;;3.09;77.06
22649;BME280;11491;41.942;24.220;2023-04-28T01:34:00;89960.00;;;3.13;75.57
22649;BME280;11491;41.942;24.220;2023-04-28T01:36:27;89948.69;;;2.99;76.24
22649;BME280;11491;41.942;24.220;2023-04-28T01:38:54;89956.13;;;2.97;76.59
22649;BME280;11491;41.942;24.220;2023-04-28T01:41:22;89963.47;;;2.86;77.25
22649;BME280;11491;41.942;24.220;2023-04-28T01:43:49;89957.97;;;2.83;77.96
22649;BME280;11491;41.942;24.220;2023-04-28T01:46:16;89969.63;;;2.82;77.94
22649;BME280;11491;41.942;24.220;2023-04-28T01:48:43;89959.84;;;2.82;77.93
22649;BME280;11491;41.942;24.220;2023-04-28T01:51:09;89962.78;;;2.80;78.13
22649;BME280;11491;41.942;24.220;2023-04-28T01:53:36;89961.41;;;2.83;77.88
22649;BME280;11491;41.942;24.220;2023-04-28T01:56:03;89969.25;;;2.74;77.76
22649;BME280;11491;41.942;24.220;2023-04-28T01:58:31;89965.34;;;2.72;78.02
22649;BME280;11491;41.942;24.220;2023-04-28T02:00:58;89964.75;;;2.61;77.91
22649;BME280;11491;41.942;24.220;2023-04-28T02:03:25;89961.63;;;2.59;78.56
22649;BME280;11491;41.942;24.220;2023-04-28T02:05:52;89967.88;;;2.63;77.31
22649;BME280;11491;41.942;24.220;2023-04-28T02:08:19;89964.94;;;2.51;78.64
22649;BME280;11491;41.942;24.220;2023-04-28T02:10:45;89962.03;;;2.39;79.04
22649;BME280;11491;41.942;24.220;2023-04-28T02:13:12;89962.19;;;2.42;78.48
22649;BME280;11491;41.942;24.220;2023-04-28T02:15:41;89955.75;;;2.34;78.93
22649;BME280;11491;41.942;24.220;2023-04-28T02:18:07;89973.03;;;2.41;79.87
22649;BME280;11491;41.942;24.220;2023-04-28T02:20:34;89969.25;;;2.47;79.19
22649;BME280;11491;41.942;24.220;2023-04-28T02:23:01;89974.13;;;2.40;78.75
22649;BME280;11491;41.942;24.220;2023-04-28T02:25:28;89976.25;;;2.37;77.92
22649;BME280;11491;41.942;24.220;2023-04-28T02:27:55;89975.28;;;2.33;77.82
22649;BME280;11491;41.942;24.220;2023-04-28T02:30:21;89979.19;;;2.22;79.07
22649;BME280;11491;41.942;24.220;2023-04-28T02:32:49;89989.13;;;2.11;79.50
22649;BME280;11491;41.942;24.220;2023-04-28T02:35:16;89985.50;;;2.07;79.92
22649;BME280;11491;41.942;24.220;2023-04-28T02:37:43;89989.09;;;1.98;80.02
22649;BME280;11491;41.942;24.220;2023-04-28T02:40:11;89986.41;;;1.84;80.19
22649;BME280;11491;41.942;24.220;2023-04-28T02:42:38;89981.03;;;1.75;80.67
22649;BME280;11491;41.942;24.220;2023-04-28T02:45:05;90001.38;;;1.88;80.23
22649;BME280;11491;41.942;24.220;2023-04-28T02:47:32;89999.41;;;1.80;80.31
22649;BME280;11491;41.942;24.220;2023-04-28T02:50:00;90003.53;;;1.86;79.32
22649;BME280;11491;41.942;24.220;2023-04-28T02:52:28;89998.81;;;1.83;79.15
22649;BME280;11491;41.942;24.220;2023-04-28T02:54:54;89996.56;;;1.58;79.95
22649;BME280;11491;41.942;24.220;2023-04-28T02:57:22;89995.16;;;1.46;80.38
22649;BME280;11491;41.942;24.220;2023-04-28T02:59:49;90002.56;;;1.44;81.66
22649;BME280;11491;41.942;24.220;2023-04-28T03:02:16;90006.13;;;1.54;81.74
22649;BME280;11491;41.942;24.220;2023-04-28T03:04:44;90010.03;;;1.56;81.86
22649;BME280;11491;41.942;24.220;2023-04-28T03:07:13;90004.22;;;1.59;81.66
22649;BME280;11491;41.942;24.220;2023-04-28T03:09:39;90010.19;;;1.65;80.92
22649;BME280;11491;41.942;24.220;2023-04-28T03:12:06;90010.69;;;1.67;79.93
22649;BME280;11491;41.942;24.220;2023-04-28T03:14:33;90009.69;;;1.63;80.15
22649;BME280;11491;41.942;24.220;2023-04-28T03:16:59;90014.94;;;1.63;79.56
22649;BME280;11491;41.942;24.220;2023-04-28T03:19:26;90014.44;;;1.61;79.50
22649;BME280;11491;41.942;24.220;2023-04-28T03:21:53;90024.47;;;1.59;79.38
22649;BME280;11491;41.942;24.220;2023-04-28T03:24:21;90025.22;;;1.45;80.47
22649;BME280;11491;41.942;24.220;2023-04-28T03:26:48;90030.47;;;1.45;80.87
22649;BME280;11491;41.942;24.220;2023-04-28T03:29:15;90025.63;;;1.53;80.05
22649;BME280;11491;41.942;24.220;2023-04-28T03:31:41;90027.34;;;1.43;80.14
22649;BME280;11491;41.942;24.220;2023-04-28T03:34:08;90032.84;;;1.47;80.21
22649;BME280;11491;41.942;24.220;2023-04-28T03:36:35;90044.66;;;1.49;80.23
22649;BME280;11491;41.942;24.220;2023-04-28T03:39:01;90049.00;;;1.40;80.77
22649;BME280;11491;41.942;24.220;2023-04-28T03:41:30;90045.44;;;1.31;81.34
22649;BME280;11491;41.942;24.220;2023-04-28T03:43:56;90043.44;;;1.23;81.61
22649;BME280;11491;41.942;24.220;2023-04-28T03:46:23;90055.38;;;1.34;81.63
22649;BME280;11491;41.942;24.220;2023-04-28T03:48:50;90052.28;;;1.32;80.78
22649;BME280;11491;41.942;24.220;2023-04-28T03:51:17;90051.25;;;1.28;80.90
22649;BME280;11491;41.942;24.220;2023-04-28T03:53:44;90062.38;;;1.25;81.42
22649;BME280;11491;41.942;24.220;2023-04-28T03:56:11;90066.50;;;1.31;81.25
22649;BME280;11491;41.942;24.220;2023-04-28T03:58:39;90067.47;;;1.16;81.27
22649;BME280;11491;41.942;24.220;2023-04-28T04:01:05;90066.44;;;1.17;81.56
22649;BME280;11491;41.942;24.220;2023-04-28T04:03:32;90070.28;;;1.25;81.75
22649;BME280;11491;41.942;24.220;2023-04-28T04:05:59;90059.25;;;1.23;82.05
22649;BME280;11491;41.942;24.220;2023-04-28T04:08:26;90062.50;;;1.15;81.66
22649;BME280;11491;41.942;24.220;2023-04-28T04:10:53;90073.53;;;1.17;82.58
22649;BME280;11491;41.942;24.220;2023-04-28T04:13:20;90076.59;;;1.24;82.05
22649;BME280;11491;41.942;24.220;2023-04-28T04:15:48;90075.16;;;1.37;82.34
22649;BME280;11491;41.942;24.220;2023-04-28T04:18:17;90078.94;;;1.49;82.60
22649;BME280;11491;41.942;24.220;2023-04-28T04:20:43;90082.53;;;1.54;82.25
22649;BME280;11491;41.942;24.220;2023-04-28T04:23:10;90076.41;;;1.58;82.24
22649;BME280;11491;41.942;24.220;2023-04-28T04:25:37;90079.66;;;1.74;80.95
22649;BME280;11491;41.942;24.220;2023-04-28T04:28:04;90081.63;;;1.82;80.54
22649;BME280;11491;41.942;24.220;2023-04-28T04:30:30;90082.84;;;1.90;81.19
22649;BME280;11491;41.942;24.220;2023-04-28T04:32:58;90083.69;;;2.04;80.33
22649;BME280;11491;41.942;24.220;2023-04-28T04:35:25;90081.91;;;2.00;80.42
22649;BME280;11491;41.942;24.220;2023-04-28T04:37:52;90089.16;;;2.08;80.59
22649;BME280;11491;41.942;24.220;2023-04-28T04:40:19;90094.09;;;2.28;78.79
22649;BME280;11491;41.942;24.220;2023-04-28T04:42:46;90084.56;;;2.32;78.48
22649;BME280;11491;41.942;24.220;2023-04-28T04:45:13;90087.47;;;2.31;78.21
22649;BME280;11491;41.942;24.220;2023-04-28T04:47:39;90093.97;;;2.39;78.64
22649;BME280;11491;41.942;24.220;2023-04-28T04:50:10;90094.22;;;2.56;78.70
22649;BME280;11491;41.942;24.220;2023-04-28T04:52:37;90090.66;;;2.61;77.74
22649;BME280;11491;41.942;24.220;2023-04-28T04:55:05;90095.16;;;2.60;77.49
22649;BME280;11491;41.942;24.220;2023-04-28T04:57:31;90104.50;;;2.71;77.60
22649;BME280;11491;41.942;24.220;2023-04-28T04:59:58;90108.00;;;2.80;77.26
22649;BME280;11491;41.942;24.220;2023-04-28T05:02:25;90115.59;;;3.01;76.78
22649;BME280;11491;41.942;24.220;2023-04-28T05:04:52;90116.66;;;3.28;75.13
22649;BME280;11491;41.942;24.220;2023-04-28T05:07:20;90105.81;;;3.43;75.09
22649;BME280;11491;41.942;24.220;2023-04-28T05:09:46;90112.06;;;3.61;74.22
22649;BME280;11491;41.942;24.220;2023-04-28T05:12:13;90113.13;;;3.74;73.12
22649;BME280;11491;41.942;24.220;2023-04-28T05:14:40;90107.88;;;3.96;73.13
22649;BME280;11491;41.942;24.220;2023-04-28T05:17:06;90108.50;;;4.16;69.75
22649;BME280;11491;41.942;24.220;2023-04-28T05:19:33;90109.38;;;4.25;69.50
22649;BME280;11491;41.942;24.220;2023-04-28T05:22:00;90114.53;;;4.30;69.30
22649;BME280;11491;41.942;24.220;2023-04-28T05:24:28;90113.81;;;4.38;70.06
22649;BME280;11491;41.942;24.220;2023-04-28T05:26:57;90117.06;;;4.58;69.36
22649;BME280;11491;41.942;24.220;2023-04-28T05:29:24;90110.31;;;4.74;68.42
22649;BME280;11491;41.942;24.220;2023-04-28T05:31:51;90105.97;;;4.78;68.34
22649;BME280;11491;41.942;24.220;2023-04-28T05:34:17;90110.94;;;5.02;67.03
22649;BME280;11491;41.942;24.220;2023-04-28T05:36:44;90113.97;;;5.18;67.68
22649;BME280;11491;41.942;24.220;2023-04-28T05:39:11;90117.53;;;5.45;66.90
22649;BME280;11491;41.942;24.220;2023-04-28T05:41:39;90110.09;;;5.64;64.26
22649;BME280;11491;41.942;24.220;2023-04-28T05:44:06;90114.69;;;5.90;62.72
22649;BME280;11491;41.942;24.220;2023-04-28T05:46:32;90116.75;;;6.10;61.85
22649;BME280;11491;41.942;24.220;2023-04-28T05:49:00;90119.28;;;6.33;60.46
22649;BME280;11491;41.942;24.220;2023-04-28T05:51:27;90108.66;;;6.50;56.46
22649;BME280;11491;41.942;24.220;2023-04-28T05:53:54;90121.31;;;6.62;56.63
22649;BME280;11491;41.942;24.220;2023-04-28T05:56:21;90112.72;;;6.74;56.58
22649;BME280;11491;41.942;24.220;2023-04-28T05:58:49;90109.88;;;6.96;56.47
22649;BME280;11491;41.942;24.220;2023-04-28T06:01:16;90115.16;;;7.14;54.96
22649;BME280;11491;41.942;24.220;2023-04-28T06:03:43;90115.78;;;7.10;51.75
22649;BME280;11491;41.942;24.220;2023-04-28T06:06:10;90114.84;;;7.06;54.62
22649;BME280;11491;41.942;24.220;2023-04-28T06:08:37;90118.56;;;7.14;54.47
22649;BME280;11491;41.942;24.220;2023-04-28T06:11:05;90118.09;;;7.12;52.78
22649;BME280;11491;41.942;24.220;2023-04-28T06:13:32;90110.13;;;7.21;51.26
22649;BME280;11491;41.942;24.220;2023-04-28T06:16:00;90110.69;;;7.35;52.63
22649;BME280;11491;41.942;24.220;2023-04-28T06:18:28;90117.53;;;7.53;52.94
22649;BME280;11491;41.942;24.220;2023-04-28T06:20:56;90116.09;;;7.56;52.14
22649;BME280;11491;41.942;24.220;2023-04-28T06:23:23;90117.53;;;7.53;52.37
22649;BME280;11491;41.942;24.220;2023-04-28T06:25:50;90113.25;;;7.61;52.31
22649;BME280;11491;41.942;24.220;2023-04-28T06:28:17;90119.56;;;7.86;48.24
22649;BME280;11491;41.942;24.220;2023-04-28T06:30:43;90114.50;;;7.93;50.06
22649;BME280;11491;41.942;24.220;2023-04-28T06:33:11;90111.28;;;8.09;51.72
22649;BME280;11491;41.942;24.220;2023-04-28T06:35:38;90118.59;;;8.20;52.27
22649;BME280;11491;41.942;24.220;2023-04-28T06:38:05;90118.31;;;8.34;51.80
22649;BME280;11491;41.942;24.220;2023-04-28T06:40:32;90126.78;;;8.36;49.68
22649;BME280;11491;41.942;24.220;2023-04-28T06:42:59;90127.06;;;8.44;51.01
22649;BME280;11491;41.942;24.220;2023-04-28T06:45:26;90120.00;;;8.48;47.81
22649;BME280;11491;41.942;24.220;2023-04-28T06:47:52;90124.47;;;8.56;49.05
22649;BME280;11491;41.942;24.220;2023-04-28T06:50:22;90118.50;;;8.59;51.68
22649;BME280;11491;41.942;24.220;2023-04-28T06:52:49;90107.06;;;8.79;52.29
22649;BME280;11491;41.942;24.220;2023-04-28T06:55:16;90122.75;;;9.14;49.91
22649;BME280;11491;41.942;24.220;2023-04-28T06:57:43;90122.25;;;9.00;44.55
22649;BME280;11491;41.942;24.220;2023-04-28T07:00:10;90123.38;;;8.78;46.22
22649;BME280;11491;41.942;24.220;2023-04-28T07:02:38;90119.25;;;8.80;46.79
22649;BME280;11491;41.942;24.220;2023-04-28T07:05:05;90113.16;;;8.80;46.61
22649;BME280;11491;41.942;24.220;2023-04-28T07:07:35;90129.63;;;9.15;48.87
22649;BME280;11491;41.942;24.220;2023-04-28T07:10:06;90122.56;;;9.32;45.57
22649;BME280;11491;41.942;24.220;2023-04-28T07:12:33;90125.03;;;9.37;46.33
22649;BME280;11491;41.942;24.220;2023-04-28T07:15:00;90127.06;;;9.52;48.03
22649;BME280;11491;41.942;24.220;2023-04-28T07:17:26;90129.97;;;9.59;50.57
22649;BME280;11491;41.942;24.220;2023-04-28T07:19:53;90126.63;;;9.75;49.60
22649;BME280;11491;41.942;24.220;2023-04-28T07:22:20;90131.09;;;9.95;48.40
22649;BME280;11491;41.942;24.220;2023-04-28T07:24:48;90130.31;;;9.95;45.61
22649;BME280;11491;41.942;24.220;2023-04-28T07:27:15;90128.41;;;9.70;49.60
22649;BME280;11491;41.942;24.220;2023-04-28T07:29:41;90137.09;;;9.80;45.71
22649;BME280;11491;41.942;24.220;2023-04-28T07:32:08;90124.97;;;9.82;48.51
22649;BME280;11491;41.942;24.220;2023-04-28T07:34:35;90130.78;;;9.97;48.10
22649;BME280;11491;41.942;24.220;2023-04-28T07:37:03;90121.97;;;10.21;44.67
22649;BME280;11491;41.942;24.220;2023-04-28T07:39:30;90125.09;;;10.35;46.10
22649;BME280;11491;41.942;24.220;2023-04-28T07:41:59;90125.63;;;10.53;47.52
22649;BME280;11491;41.942;24.220;2023-04-28T07:44:28;90118.38;;;10.66;46.57
22649;BME280;11491;41.942;24.220;2023-04-28T07:46:55;90123.16;;;10.60;42.37
22649;BME280;11491;41.942;24.220;2023-04-28T07:49:21;90129.28;;;10.61;48.88
22649;BME280;11491;41.942;24.220;2023-04-28T07:51:48;90128.19;;;10.62;48.40
22649;BME280;11491;41.942;24.220;2023-04-28T07:54:17;90131.09;;;10.44;45.74
22649;BME280;11491;41.942;24.220;2023-04-28T07:56:44;90129.53;;;10.31;47.26
22649;BME280;11491;41.942;24.220;2023-04-28T07:59:12;90133.00;;;10.44;47.32
22649;BME280;11491;41.942;24.220;2023-04-28T08:01:39;90126.59;;;10.61;44.82
22649;BME280;11491;41.942;24.220;2023-04-28T08:04:07;90129.94;;;10.70;46.19
22649;BME280;11491;41.942;24.220;2023-04-28T08:06:33;90127.03;;;10.75;47.96
22649;BME280;11491;41.942;24.220;2023-04-28T08:09:00;90112.59;;;10.64;49.25
22649;BME280;11491;41.942;24.220;2023-04-28T08:11:28;90101.16;;;10.51;47.47
22649;BME280;11491;41.942;24.220;2023-04-28T08:13:54;90115.47;;;10.71;45.93
22649;BME280;11491;41.942;24.220;2023-04-28T08:16:27;90118.47;;;10.69;42.53
22649;BME280;11491;41.942;24.220;2023-04-28T08:18:54;90111.38;;;10.49;43.10
22649;BME280;11491;41.942;24.220;2023-04-28T08:21:21;90108.81;;;10.52;45.91
22649;BME280;11491;41.942;24.220;2023-04-28T08:23:48;90119.50;;;10.52;41.52
22649;BME280;11491;41.942;24.220;2023-04-28T08:26:15;90118.72;;;10.27;46.35
22649;BME280;11491;41.942;24.220;2023-04-28T08:28:41;90113.84;;;10.17;41.55
22649;BME280;11491;41.942;24.220;2023-04-28T08:31:08;90107.97;;;9.99;42.97
22649;BME280;11491;41.942;24.220;2023-04-28T08:33:36;90120.88;;;10.34;46.08
22649;BME280;11491;41.942;24.220;2023-04-28T08:36:04;90114.38;;;10.60;42.09
22649;BME280;11491;41.942;24.220;2023-04-28T08:38:31;90118.38;;;10.66;48.78
22649;BME280;11491;41.942;24.220;2023-04-28T08:40:58;90108.28;;;10.87;44.11
22649;BME280;11491;41.942;24.220;2023-04-28T08:43:24;90097.81;;;10.82;41.02
22649;BME280;11491;41.942;24.220;2023-04-28T08:45:53;90097.38;;;10.80;42.92
22649;BME280;11491;41.942;24.220;2023-04-28T08:48:21;90099.72;;;10.29;41.50
22649;BME280;11491;41.942;24.220;2023-04-28T08:50:50;90095.69;;;10.23;47.79
22649;BME280;11491;41.942;24.220;2023-04-28T08:53:22;90090.81;;;10.37;43.40
22649;BME280;11491;41.942;24.220;2023-04-28T08:55:51;90096.81;;;10.09;41.68
22649;BME280;11491;41.942;24.220;2023-04-28T08:58:21;90103.38;;;10.49;44.86
22649;BME280;11491;41.942;24.220;2023-04-28T09:00:48;90097.44;;;10.55;46.50
22649;BME280;11491;41.942;24.220;2023-04-28T09:03:15;90100.31;;;10.63;46.33
22649;BME280;11491;41.942;24.220;2023-04-28T09:05:41;90094.13;;;10.87;41.40
22649;BME280;11491;41.942;24.220;2023-04-28T09:08:10;90096.88;;;10.90;42.85
22649;BME280;11491;41.942;24.220;2023-04-28T09:10:37;90085.81;;;10.76;44.08
22649;BME280;11491;41.942;24.220;2023-04-28T09:13:04;90104.94;;;10.78;39.61
22649;BME280;11491;41.942;24.220;2023-04-28T09:15:32;90095.69;;;10.47;39.96
22649;BME280;11491;41.942;24.220;2023-04-28T09:18:00;90086.91;;;10.75;40.82
22649;BME280;11491;41.942;24.220;2023-04-28T09:20:29;90088.63;;;10.95;45.10
22649;BME280;11491;41.942;24.220;2023-04-28T09:23:12;90086.47;;;11.29;40.74
22649;BME280;11491;41.942;24.220;2023-04-28T09:25:40;90092.50;;;11.26;39.49
22649;BME280;11491;41.942;24.220;2023-04-28T09:28:18;90078.88;;;11.47;38.02
22649;BME280;11491;41.942;24.220;2023-04-28T09:30:46;90085.28;;;11.42;39.49
22649;BME280;11491;41.942;24.220;2023-04-28T09:33:13;90083.22;;;11.52;39.18
22649;BME280;11491;41.942;24.220;2023-04-28T09:35:41;90055.22;;;11.33;38.48
22649;BME280;11491;41.942;24.220;2023-04-28T09:38:09;90078.66;;;11.68;41.85
22649;BME280;11491;41.942;24.220;2023-04-28T09:40:50;90075.09;;;11.64;40.65
22649;BME280;11491;41.942;24.220;2023-04-28T09:43:24;90077.34;;;11.02;40.09
22649;BME280;11491;41.942;24.220;2023-04-28T09:45:52;90085.84;;;10.64;39.95
22649;BME280;11491;41.942;24.220;2023-04-28T09:48:26;90079.97;;;10.86;41.64
22649;BME280;11491;41.942;24.220;2023-04-28T09:50:53;90066.50;;;11.11;41.17
22649;BME280;11491;41.942;24.220;2023-04-28T09:53:21;90079.88;;;10.83;39.26
22649;BME280;11491;41.942;24.220;2023-04-28T09:55:51;90066.84;;;10.81;40.64
22649;BME280;11491;41.942;24.220;2023-04-28T09:58:18;90064.41;;;11.04;39.35
22649;BME280;11491;41.942;24.220;2023-04-28T10:00:50;90062.25;;;11.10;39.47
22649;BME280;11491;41.942;24.220;2023-04-28T10:03:20;90057.53;;;11.35;39.23
22649;BME280;11491;41.942;24.220;2023-04-28T10:05:47;90059.88;;;11.52;38.27
22649;BME280;11491;41.942;24.220;2023-04-28T10:08:15;90066.28;;;11.48;39.39
22649;BME280;11491;41.942;24.220;2023-04-28T10:10:44;90067.69;;;11.73;40.84
22649;BME280;11491;41.942;24.220;2023-04-28T10:13:15;90061.13;;;11.87;37.63
22649;BME280;11491;41.942;24.220;2023-04-28T10:15:42;90052.97;;;11.67;37.83
22649;BME280;11491;41.942;24.220;2023-04-28T10:18:10;90048.59;;;11.59;38.04
22649;BME280;11491;41.942;24.220;2023-04-28T10:20:37;90052.81;;;11.44;39.76
22649;BME280;11491;41.942;24.220;2023-04-28T10:23:19;90044.34;;;11.74;40.96
22649;BME280;11491;41.942;24.220;2023-04-28T10:25:54;90041.91;;;12.16;42.27
22649;BME280;11491;41.942;24.220;2023-04-28T10:28:23;90038.72;;;12.46;36.53
22649;BME280;11491;41.942;24.220;2023-04-28T10:31:08;90036.84;;;12.66;40.81
22649;BME280;11491;41.942;24.220;2023-04-28T10:33:36;90032.69;;;13.27;36.31
22649;BME280;11491;41.942;24.220;2023-04-28T10:36:04;90032.53;;;12.81;37.44
22649;BME280;11491;41.942;24.220;2023-04-28T10:38:31;90032.88;;;12.79;36.51
22649;BME280;11491;41.942;24.220;2023-04-28T10:40:58;90023.53;;;12.34;36.40
22649;BME280;11491;41.942;24.220;2023-04-28T10:43:36;90019.88;;;12.07;36.65
22649;BME280;11491;41.942;24.220;2023-04-28T10:46:05;90026.44;;;12.45;38.36
22649;BME280;11491;41.942;24.220;2023-04-28T10:48:55;90024.06;;;12.40;38.36
22649;BME280;11491;41.942;24.220;2023-04-28T10:51:32;90017.16;;;12.78;37.47
22649;BME280;11491;41.942;24.220;2023-04-28T10:54:15;90016.59;;;12.88;37.97
22649;BME280;11491;41.942;24.220;2023-04-28T10:59:47;90018.47;;;13.95;38.55
22649;BME280;11491;41.942;24.220;2023-04-28T11:02:47;90019.78;;;13.82;34.72
22649;BME280;11491;41.942;24.220;2023-04-28T11:05:16;90021.81;;;13.66;36.07
22649;BME280;11491;41.942;24.220;2023-04-28T11:11:11;90012.78;;;14.27;40.12
22649;BME280;11491;41.942;24.220;2023-04-28T11:13:38;90017.13;;;14.62;39.17
22649;BME280;11491;41.942;24.220;2023-04-28T11:16:06;90018.66;;;14.63;37.29
22649;BME280;11491;41.942;24.220;2023-04-28T11:18:47;90010.25;;;14.64;37.03
22649;BME280;11491;41.942;24.220;2023-04-28T11:21:14;90016.06;;;14.70;37.37
22649;BME280;11491;41.942;24.220;2023-04-28T11:23:42;90015.38;;;14.73;38.23
22649;BME280;11491;41.942;24.220;2023-04-28T11:26:09;90017.72;;;14.52;37.81
22649;BME280;11491;41.942;24.220;2023-04-28T11:28:45;90014.84;;;14.64;39.93
22649;BME280;11491;41.942;24.220;2023-04-28T11:31:15;90017.50;;;14.91;41.13
22649;BME280;11491;41.942;24.220;2023-04-28T11:33:45;90017.38;;;15.51;40.86
22649;BME280;11491;41.942;24.220;2023-04-28T11:36:26;90017.25;;;16.26;40.13
22649;BME280;11491;41.942;24.220;2023-04-28T11:38:54;90019.56;;;16.86;37.28
22649;BME280;11491;41.942;24.220;2023-04-28T11:41:22;90009.59;;;16.97;35.18
22649;BME280;11491;41.942;24.220;2023-04-28T11:43:49;90005.38;;;17.11;37.64
22649;BME280;11491;41.942;24.220;2023-04-28T11:46:18;90012.41;;;17.33;36.54
22649;BME280;11491;41.942;24.220;2023-04-28T11:48:46;90007.88;;;17.73;35.70
22649;BME280;11491;41.942;24.220;2023-04-28T11:51:31;89998.66;;;17.96;34.92
22649;BME280;11491;41.942;24.220;2023-04-28T11:53:59;90001.75;;;17.98;32.12
22649;BME280;11491;41.942;24.220;2023-04-28T11:56:27;90005.63;;;18.04;35.52
22649;BME280;11491;41.942;24.220;2023-04-28T11:59:01;89997.88;;;17.84;33.93
22649;BME280;11491;41.942;24.220;2023-04-28T12:01:30;90000.94;;;17.72;32.54
22649;BME280;11491;41.942;24.220;2023-04-28T12:03:57;89996.22;;;17.40;33.95
22649;BME280;11491;41.942;24.220;2023-04-28T12:06:24;89990.00;;;17.26;31.77
22649;BME280;11491;41.942;24.220;2023-04-28T12:08:52;89993.38;;;17.01;30.93
22649;BME280;11491;41.942;24.220;2023-04-28T12:11:19;89992.19;;;16.88;31.87
22649;BME280;11491;41.942;24.220;2023-04-28T12:14:02;89983.47;;;16.46;34.27
22649;BME280;11491;41.942;24.220;2023-04-28T12:16:38;89983.69;;;16.82;34.29
22649;BME280;11491;41.942;24.220;2023-04-28T12:19:08;89979.81;;;16.87;34.58
22649;BME280;11491;41.942;24.220;2023-04-28T12:21:36;89968.31;;;17.00;34.62
22649;BME280;11491;41.942;24.220;2023-04-28T12:24:15;89972.31;;;17.42;37.39
22649;BME280;11491;41.942;24.220;2023-04-28T12:26:43;89970.03;;;17.77;34.35
22649;BME280;11491;41.942;24.220;2023-04-28T12:29:34;89966.19;;;18.32;33.46
22649;BME280;11491;41.942;24.220;2023-04-28T12:32:03;89963.88;;;18.05;32.40
22649;BME280;11491;41.942;24.220;2023-04-28T12:34:30;89943.72;;;17.27;33.59
22649;BME280;11491;41.942;24.220;2023-04-28T12:36:58;89964.66;;;18.02;36.09
22649;BME280;11491;41.942;24.220;2023-04-28T12:39:25;89954.53;;;18.56;35.78
22649;BME280;11491;41.942;24.220;2023-04-28T12:41:51;89953.66;;;18.95;31.62
22649;BME280;11491;41.942;24.220;2023-04-28T12:44:19;89950.84;;;19.24;31.54
22649;BME280;11491;41.942;24.220;2023-04-28T12:46:46;89954.94;;;19.53;32.16
22649;BME280;11491;41.942;24.220;2023-04-28T12:49:14;89949.72;;;19.10;32.31
22649;BME280;11491;41.942;24.220;2023-04-28T12:51:41;89945.78;;;19.33;31.68
22649;BME280;11491;41.942;24.220;2023-04-28T12:54:08;89945.06;;;19.18;32.64
22649;BME280;11491;41.942;24.220;2023-04-28T12:56:35;89938.53;;;19.08;34.12
22649;BME280;11491;41.942;24.220;2023-04-28T12:59:01;89943.69;;;18.63;30.01
22649;BME280;11491;41.942;24.220;2023-04-28T13:01:28;89936.81;;;18.16;34.14
22649;BME280;11491;41.942;24.220;2023-04-28T13:03:55;89936.06;;;18.08;30.80
22649;BME280;11491;41.942;24.220;2023-04-28T13:06:23;89931.81;;;17.93;33.57